RYR48FZ GCTS-LEZL
Flight info
| Callsign | RYR48FZ |
|---|---|
| Flight time | 2h 9m |
| Altitude | 36000 |
| Route | KORAL UG5 ESS UN871 ADUBI DCT VJF |
| Aircraft | B738/M-SDE2E3FGHIRWXY/LB1 |
Departure
| Time | 2026-04-22 05:08 |
|---|---|
| Airport | Tenerife Sur Airport (GCTS) |
Arrival
| Time | 2026-04-22 07:17 |
|---|---|
| Airport | Seville Airport (LEZL) |
| Time | Latitude | Longitude | Altitude | Speed | Heading |
|---|---|---|---|---|---|
| 2026-04-22 04:37 | 28.04739 | -16.57575 | 225 ft | 0 kts | 338° |
| 2026-04-22 04:39 | 28.04539 | -16.58173 | 226 ft | 0 kts | 338° |
| 2026-04-22 04:59 | 28.04539 | -16.58172 | 225 ft | 1 kts | 338° |
| 2026-04-22 04:59 | 28.04525 | -16.58166 | 227 ft | 3 kts | 335° |
| 2026-04-22 04:59 | 28.04507 | -16.58156 | 227 ft | 3 kts | 328° |
| 2026-04-22 04:59 | 28.04490 | -16.58143 | 225 ft | 3 kts | 316° |
| 2026-04-22 05:00 | 28.04478 | -16.58126 | 224 ft | 3 kts | 290° |
| 2026-04-22 05:00 | 28.04475 | -16.58110 | 223 ft | 1 kts | 250° |
| 2026-04-22 05:00 | 28.04476 | -16.58108 | 223 ft | 2 kts | 248° |
| 2026-04-22 05:02 | 28.04469 | -16.58128 | 223 ft | 6 kts | 248° |
| 2026-04-22 05:03 | 28.04447 | -16.58189 | 223 ft | 11 kts | 248° |
| 2026-04-22 05:03 | 28.04377 | -16.58201 | 222 ft | 12 kts | 158° |
| 2026-04-22 05:03 | 28.04299 | -16.58204 | 223 ft | 12 kts | 227° |
| 2026-04-22 05:03 | 28.04267 | -16.58292 | 222 ft | 12 kts | 249° |
| 2026-04-22 05:04 | 28.04229 | -16.58400 | 222 ft | 18 kts | 248° |
| 2026-04-22 05:04 | 28.04188 | -16.58537 | 222 ft | 18 kts | 257° |
| 2026-04-22 05:04 | 28.04144 | -16.58671 | 224 ft | 19 kts | 249° |
| 2026-04-22 05:04 | 28.04089 | -16.58823 | 213 ft | 22 kts | 249° |
| 2026-04-22 05:05 | 28.04031 | -16.58978 | 213 ft | 21 kts | 229° |
| 2026-04-22 05:05 | 28.03918 | -16.58906 | 202 ft | 25 kts | 120° |
| 2026-04-22 05:05 | 28.03923 | -16.58753 | 200 ft | 0 kts | 69° |
| 2026-04-22 05:06 | 28.03927 | -16.58740 | 196 ft | 8 kts | 69° |
| 2026-04-22 05:07 | 28.03994 | -16.58552 | 205 ft | 57 kts | 68° |
| 2026-04-22 05:07 | 28.04225 | -16.57888 | 200 ft | 122 kts | 69° |
| 2026-04-22 05:07 | 28.04605 | -16.56812 | 252 ft | 165 kts | 69° |
| 2026-04-22 05:07 | 28.04981 | -16.55575 | 804 ft | 173 kts | 69° |
| 2026-04-22 05:08 | 28.05445 | -16.54269 | 1412 ft | 182 kts | 66° |
| 2026-04-22 05:08 | 28.05936 | -16.52916 | 2097 ft | 193 kts | 67° |
| 2026-04-22 05:08 | 28.06451 | -16.51480 | 2734 ft | 200 kts | 68° |
| 2026-04-22 05:08 | 28.06973 | -16.49993 | 3325 ft | 206 kts | 69° |
| 2026-04-22 05:09 | 28.07508 | -16.48468 | 3891 ft | 210 kts | 69° |
| 2026-04-22 05:09 | 28.08058 | -16.46902 | 4310 ft | 224 kts | 69° |
| 2026-04-22 05:09 | 28.08615 | -16.45138 | 4516 ft | 253 kts | 79° |
| 2026-04-22 05:09 | 28.08826 | -16.43091 | 5101 ft | 268 kts | 86° |
| 2026-04-22 05:10 | 28.08972 | -16.40951 | 5932 ft | 275 kts | 86° |
| 2026-04-22 05:10 | 28.09125 | -16.38763 | 6765 ft | 281 kts | 86° |
| 2026-04-22 05:10 | 28.09283 | -16.36531 | 7535 ft | 287 kts | 86° |
| 2026-04-22 05:10 | 28.09445 | -16.34252 | 8310 ft | 293 kts | 86° |
| 2026-04-22 05:11 | 28.09611 | -16.31932 | 9102 ft | 298 kts | 86° |
| 2026-04-22 05:11 | 28.09781 | -16.29576 | 9773 ft | 302 kts | 86° |
| 2026-04-22 05:11 | 28.09953 | -16.27188 | 10343 ft | 312 kts | 86° |
| 2026-04-22 05:11 | 28.10135 | -16.24644 | 10535 ft | 335 kts | 86° |
| 2026-04-22 05:12 | 28.10327 | -16.21978 | 11048 ft | 344 kts | 86° |
| 2026-04-22 05:12 | 28.10524 | -16.19255 | 11718 ft | 349 kts | 86° |
| 2026-04-22 05:12 | 28.10719 | -16.16540 | 12397 ft | 353 kts | 86° |
| 2026-04-22 05:12 | 28.10918 | -16.13757 | 13052 ft | 357 kts | 86° |
| 2026-04-22 05:13 | 28.11120 | -16.10929 | 13705 ft | 362 kts | 87° |
| 2026-04-22 05:13 | 28.11324 | -16.08070 | 14283 ft | 367 kts | 87° |
| 2026-04-22 05:13 | 28.11529 | -16.05181 | 14881 ft | 370 kts | 86° |
| 2026-04-22 05:13 | 28.11731 | -16.02263 | 15478 ft | 373 kts | 88° |
| 2026-04-22 05:14 | 28.11722 | -15.99316 | 16053 ft | 376 kts | 95° |
| 2026-04-22 05:14 | 28.11526 | -15.96356 | 16664 ft | 378 kts | 97° |
| 2026-04-22 05:14 | 28.11277 | -15.93375 | 17240 ft | 382 kts | 97° |
| 2026-04-22 05:14 | 28.11024 | -15.90363 | 17798 ft | 386 kts | 96° |
| 2026-04-22 05:15 | 28.10782 | -15.87318 | 18349 ft | 390 kts | 96° |
| 2026-04-22 05:15 | 28.10554 | -15.84240 | 18844 ft | 394 kts | 96° |
| 2026-04-22 05:15 | 28.10334 | -15.81136 | 19341 ft | 397 kts | 95° |
| 2026-04-22 05:15 | 28.10120 | -15.78007 | 19829 ft | 400 kts | 95° |
| 2026-04-22 05:16 | 28.09906 | -15.74852 | 20319 ft | 403 kts | 95° |
| 2026-04-22 05:16 | 28.09691 | -15.71672 | 20794 ft | 407 kts | 95° |
| 2026-04-22 05:16 | 28.09474 | -15.68469 | 21251 ft | 410 kts | 95° |
| 2026-04-22 05:16 | 28.09254 | -15.65232 | 21727 ft | 413 kts | 95° |
| 2026-04-22 05:17 | 28.09032 | -15.61977 | 22182 ft | 416 kts | 95° |
| 2026-04-22 05:17 | 28.08807 | -15.58701 | 22641 ft | 419 kts | 95° |
| 2026-04-22 05:17 | 28.08579 | -15.55400 | 23057 ft | 422 kts | 95° |
| 2026-04-22 05:17 | 28.08349 | -15.52075 | 23459 ft | 425 kts | 95° |
| 2026-04-22 05:18 | 28.07931 | -15.45351 | 24149 ft | 431 kts | 88° |
| 2026-04-22 05:18 | 28.08472 | -15.42021 | 24434 ft | 432 kts | 68° |
| 2026-04-22 05:18 | 28.09839 | -15.39064 | 24772 ft | 429 kts | 54° |
| 2026-04-22 05:19 | 28.11537 | -15.36220 | 25110 ft | 431 kts | 53° |
| 2026-04-22 05:19 | 28.13231 | -15.33462 | 25392 ft | 435 kts | 52° |
| 2026-04-22 05:19 | 28.14971 | -15.30642 | 25688 ft | 438 kts | 53° |
| 2026-04-22 05:19 | 28.16713 | -15.27802 | 26010 ft | 440 kts | 53° |
| 2026-04-22 05:20 | 28.18451 | -15.24943 | 26336 ft | 442 kts | 53° |
| 2026-04-22 05:20 | 28.20189 | -15.22062 | 26642 ft | 444 kts | 53° |
| 2026-04-22 05:20 | 28.21931 | -15.19156 | 26950 ft | 447 kts | 53° |
| 2026-04-22 05:20 | 28.23679 | -15.16230 | 27250 ft | 449 kts | 53° |
| 2026-04-22 05:21 | 28.25431 | -15.13291 | 27549 ft | 451 kts | 53° |
| 2026-04-22 05:21 | 28.27192 | -15.10332 | 27848 ft | 454 kts | 53° |
| 2026-04-22 05:21 | 28.28962 | -15.07357 | 28141 ft | 456 kts | 54° |
| 2026-04-22 05:21 | 28.30735 | -15.04373 | 28438 ft | 458 kts | 54° |
| 2026-04-22 05:22 | 28.32523 | -15.01364 | 28715 ft | 460 kts | 54° |
| 2026-04-22 05:22 | 28.34320 | -14.98339 | 28999 ft | 463 kts | 54° |
| 2026-04-22 05:22 | 28.36122 | -14.95303 | 29280 ft | 465 kts | 54° |
| 2026-04-22 05:22 | 28.37929 | -14.92256 | 29583 ft | 467 kts | 54° |
| 2026-04-22 05:23 | 28.39744 | -14.89192 | 29852 ft | 469 kts | 54° |
| 2026-04-22 05:23 | 28.41568 | -14.86113 | 30100 ft | 471 kts | 54° |
| 2026-04-22 05:23 | 28.43403 | -14.83013 | 30326 ft | 473 kts | 54° |
| 2026-04-22 05:23 | 28.45240 | -14.79907 | 30573 ft | 475 kts | 53° |
| 2026-04-22 05:24 | 28.47081 | -14.76792 | 30832 ft | 475 kts | 53° |
| 2026-04-22 05:24 | 28.48924 | -14.73670 | 31109 ft | 476 kts | 53° |
| 2026-04-22 05:24 | 28.50766 | -14.70547 | 31381 ft | 476 kts | 53° |
| 2026-04-22 05:24 | 28.52614 | -14.67413 | 31640 ft | 477 kts | 53° |
| 2026-04-22 05:25 | 28.54462 | -14.64276 | 31890 ft | 478 kts | 52° |
| 2026-04-22 05:25 | 28.56308 | -14.61140 | 32160 ft | 478 kts | 52° |
| 2026-04-22 05:25 | 28.58162 | -14.57989 | 32418 ft | 479 kts | 52° |
| 2026-04-22 05:25 | 28.60009 | -14.54846 | 32751 ft | 477 kts | 52° |
| 2026-04-22 05:26 | 28.61850 | -14.51711 | 33100 ft | 475 kts | 52° |
| 2026-04-22 05:26 | 28.63686 | -14.48583 | 33299 ft | 477 kts | 52° |
| 2026-04-22 05:26 | 28.65506 | -14.45482 | 33462 ft | 479 kts | 52° |
| 2026-04-22 05:26 | 28.67379 | -14.42287 | 33696 ft | 479 kts | 52° |
| 2026-04-22 05:27 | 28.69228 | -14.39130 | 33968 ft | 478 kts | 51° |
| 2026-04-22 05:27 | 28.71070 | -14.35981 | 34151 ft | 479 kts | 51° |
| 2026-04-22 05:27 | 28.72898 | -14.32857 | 34291 ft | 481 kts | 51° |
| 2026-04-22 05:27 | 28.74778 | -14.29641 | 34445 ft | 482 kts | 51° |
| 2026-04-22 05:28 | 28.76609 | -14.26505 | 34618 ft | 482 kts | 51° |
| 2026-04-22 05:28 | 28.78464 | -14.23325 | 34818 ft | 482 kts | 51° |
| 2026-04-22 05:28 | 28.80309 | -14.20158 | 35100 ft | 479 kts | 51° |
| 2026-04-22 05:28 | 28.82145 | -14.17003 | 35364 ft | 476 kts | 51° |
| 2026-04-22 05:29 | 28.83981 | -14.13850 | 35490 ft | 478 kts | 51° |
| 2026-04-22 05:29 | 28.85824 | -14.10685 | 35573 ft | 480 kts | 51° |
| 2026-04-22 05:29 | 28.87670 | -14.07512 | 35708 ft | 480 kts | 50° |
| 2026-04-22 05:29 | 28.89513 | -14.04340 | 35879 ft | 480 kts | 50° |
| 2026-04-22 05:30 | 28.93207 | -13.97973 | 35967 ft | 484 kts | 50° |
| 2026-04-22 05:30 | 28.96932 | -13.91547 | 35987 ft | 486 kts | 50° |
| 2026-04-22 05:31 | 29.00681 | -13.85068 | 36000 ft | 492 kts | 51° |
| 2026-04-22 05:31 | 29.04473 | -13.78504 | 35985 ft | 498 kts | 51° |
| 2026-04-22 05:32 | 29.08308 | -13.71855 | 35980 ft | 504 kts | 51° |
| 2026-04-22 05:32 | 29.12182 | -13.65125 | 35979 ft | 510 kts | 51° |
| 2026-04-22 05:33 | 29.16099 | -13.58308 | 35966 ft | 515 kts | 51° |
| 2026-04-22 05:33 | 29.20034 | -13.51447 | 35972 ft | 517 kts | 52° |
| 2026-04-22 05:34 | 29.23980 | -13.44555 | 35961 ft | 518 kts | 52° |
| 2026-04-22 05:34 | 29.27918 | -13.37666 | 35969 ft | 516 kts | 52° |
| 2026-04-22 05:35 | 29.31841 | -13.30794 | 35971 ft | 514 kts | 52° |
| 2026-04-22 05:35 | 29.35746 | -13.23942 | 35967 ft | 513 kts | 52° |
| 2026-04-22 05:36 | 29.39640 | -13.17098 | 35970 ft | 511 kts | 52° |
| 2026-04-22 05:36 | 29.43517 | -13.10274 | 35983 ft | 510 kts | 52° |
| 2026-04-22 05:37 | 29.47384 | -13.03456 | 35995 ft | 509 kts | 52° |
| 2026-04-22 05:37 | 29.51236 | -12.96652 | 35975 ft | 508 kts | 52° |
| 2026-04-22 05:38 | 29.55076 | -12.89858 | 35970 ft | 507 kts | 52° |
| 2026-04-22 05:38 | 29.58902 | -12.83076 | 35974 ft | 505 kts | 52° |
| 2026-04-22 05:39 | 29.62718 | -12.76302 | 35970 ft | 505 kts | 53° |
| 2026-04-22 05:39 | 29.66524 | -12.69532 | 35976 ft | 504 kts | 53° |
| 2026-04-22 05:40 | 29.70320 | -12.62767 | 35974 ft | 503 kts | 53° |
| 2026-04-22 05:40 | 29.74121 | -12.56005 | 35976 ft | 503 kts | 52° |
| 2026-04-22 05:41 | 29.78023 | -12.49406 | 35974 ft | 502 kts | 51° |
| 2026-04-22 05:41 | 29.81989 | -12.42796 | 35999 ft | 502 kts | 51° |
| 2026-04-22 05:42 | 29.85933 | -12.36157 | 35987 ft | 502 kts | 52° |
| 2026-04-22 05:42 | 29.89856 | -12.29507 | 35965 ft | 502 kts | 52° |
| 2026-04-22 05:43 | 29.93771 | -12.22853 | 35972 ft | 501 kts | 52° |
| 2026-04-22 05:43 | 29.97680 | -12.16203 | 35973 ft | 501 kts | 52° |
| 2026-04-22 05:44 | 30.01585 | -12.09553 | 35970 ft | 500 kts | 52° |
| 2026-04-22 05:44 | 30.05509 | -12.02919 | 35980 ft | 500 kts | 52° |
| 2026-04-22 05:45 | 30.09433 | -11.96301 | 35966 ft | 499 kts | 52° |
| 2026-04-22 05:45 | 30.13347 | -11.89681 | 35970 ft | 499 kts | 52° |
| 2026-04-22 05:46 | 30.17250 | -11.83059 | 35972 ft | 498 kts | 52° |
| 2026-04-22 05:46 | 30.21147 | -11.76434 | 35972 ft | 498 kts | 52° |
| 2026-04-22 05:47 | 30.25034 | -11.69815 | 35970 ft | 498 kts | 52° |
| 2026-04-22 05:47 | 30.28923 | -11.63182 | 35971 ft | 498 kts | 52° |
| 2026-04-22 05:48 | 30.32804 | -11.56552 | 35971 ft | 498 kts | 52° |
| 2026-04-22 05:48 | 30.36026 | -11.51039 | 35971 ft | 498 kts | 52° |
| 2026-04-22 05:49 | 30.40534 | -11.43313 | 35969 ft | 498 kts | 52° |
| 2026-04-22 05:49 | 30.44410 | -11.36660 | 35972 ft | 498 kts | 52° |
| 2026-04-22 05:50 | 30.48282 | -11.30000 | 35980 ft | 498 kts | 52° |
| 2026-04-22 05:50 | 30.51499 | -11.24458 | 35963 ft | 498 kts | 52° |
| 2026-04-22 05:51 | 30.55361 | -11.17797 | 35959 ft | 497 kts | 52° |
| 2026-04-22 05:51 | 30.59210 | -11.11145 | 35970 ft | 496 kts | 52° |
| 2026-04-22 05:52 | 30.63056 | -11.04489 | 35962 ft | 496 kts | 52° |
| 2026-04-22 05:52 | 30.66888 | -10.97844 | 35969 ft | 495 kts | 52° |
| 2026-04-22 05:53 | 30.70719 | -10.91192 | 35984 ft | 495 kts | 52° |
| 2026-04-22 05:53 | 30.74539 | -10.84546 | 35968 ft | 494 kts | 52° |
| 2026-04-22 05:54 | 30.78351 | -10.77904 | 35962 ft | 493 kts | 52° |
| 2026-04-22 05:54 | 30.82150 | -10.71273 | 35974 ft | 493 kts | 53° |
| 2026-04-22 05:55 | 30.85949 | -10.64632 | 35970 ft | 492 kts | 53° |
| 2026-04-22 05:55 | 30.89740 | -10.57992 | 35968 ft | 492 kts | 53° |
| 2026-04-22 05:56 | 30.93518 | -10.51363 | 35962 ft | 491 kts | 53° |
| 2026-04-22 05:56 | 30.97268 | -10.44774 | 35964 ft | 490 kts | 53° |
| 2026-04-22 05:57 | 31.01033 | -10.38145 | 35962 ft | 490 kts | 53° |
| 2026-04-22 05:57 | 31.04792 | -10.31517 | 35962 ft | 490 kts | 53° |
| 2026-04-22 05:58 | 31.08544 | -10.24888 | 35961 ft | 489 kts | 53° |
| 2026-04-22 05:58 | 31.12291 | -10.18257 | 35988 ft | 489 kts | 53° |
| 2026-04-22 05:59 | 31.16030 | -10.11628 | 35972 ft | 489 kts | 53° |
| 2026-04-22 05:59 | 31.19773 | -10.04986 | 35964 ft | 489 kts | 53° |
| 2026-04-22 06:00 | 31.23510 | -9.98349 | 35967 ft | 489 kts | 53° |
| 2026-04-22 06:00 | 31.27237 | -9.91711 | 35968 ft | 489 kts | 53° |
| 2026-04-22 06:01 | 31.30964 | -9.85061 | 35967 ft | 489 kts | 53° |
| 2026-04-22 06:01 | 31.34681 | -9.78413 | 35975 ft | 488 kts | 53° |
| 2026-04-22 06:02 | 31.38441 | -9.71803 | 35957 ft | 486 kts | 47° |
| 2026-04-22 06:02 | 31.43163 | -9.66395 | 35961 ft | 474 kts | 30° |
| 2026-04-22 06:03 | 31.48724 | -9.62353 | 35966 ft | 470 kts | 26° |
| 2026-04-22 06:03 | 31.54367 | -9.58388 | 35972 ft | 470 kts | 26° |
| 2026-04-22 06:04 | 31.59927 | -9.54424 | 35965 ft | 471 kts | 26° |
| 2026-04-22 06:04 | 31.65506 | -9.50400 | 35973 ft | 471 kts | 26° |
| 2026-04-22 06:05 | 31.71081 | -9.46361 | 35973 ft | 471 kts | 26° |
| 2026-04-22 06:05 | 31.76651 | -9.42319 | 35979 ft | 470 kts | 26° |
| 2026-04-22 06:06 | 31.82211 | -9.38282 | 35979 ft | 470 kts | 26° |
| 2026-04-22 06:06 | 31.87767 | -9.34243 | 35969 ft | 469 kts | 26° |
| 2026-04-22 06:07 | 31.93322 | -9.30199 | 35977 ft | 469 kts | 26° |
| 2026-04-22 06:07 | 31.98865 | -9.26157 | 35971 ft | 469 kts | 26° |
| 2026-04-22 06:08 | 32.04392 | -9.22121 | 35985 ft | 469 kts | 26° |
| 2026-04-22 06:08 | 32.09936 | -9.18068 | 35982 ft | 469 kts | 26° |
| 2026-04-22 06:09 | 32.15479 | -9.14008 | 35979 ft | 469 kts | 26° |
| 2026-04-22 06:09 | 32.21020 | -9.09945 | 35981 ft | 469 kts | 26° |
| 2026-04-22 06:10 | 32.26554 | -9.05880 | 35994 ft | 468 kts | 27° |
| 2026-04-22 06:10 | 32.32088 | -9.01810 | 35992 ft | 468 kts | 27° |
| 2026-04-22 06:11 | 32.37627 | -8.97731 | 35988 ft | 469 kts | 27° |
| 2026-04-22 06:11 | 32.43155 | -8.93653 | 35986 ft | 468 kts | 27° |
| 2026-04-22 06:12 | 32.48687 | -8.89566 | 35984 ft | 468 kts | 27° |
| 2026-04-22 06:12 | 32.54173 | -8.85507 | 35989 ft | 468 kts | 27° |
| 2026-04-22 06:13 | 32.59697 | -8.81415 | 35998 ft | 468 kts | 27° |
| 2026-04-22 06:13 | 32.65256 | -8.77290 | 35989 ft | 469 kts | 27° |
| 2026-04-22 06:14 | 32.70784 | -8.73182 | 35983 ft | 469 kts | 27° |
| 2026-04-22 06:14 | 32.76271 | -8.69098 | 36002 ft | 468 kts | 27° |
| 2026-04-22 06:15 | 32.81786 | -8.64987 | 35994 ft | 468 kts | 27° |
| 2026-04-22 06:15 | 32.87305 | -8.60867 | 36010 ft | 468 kts | 27° |
| 2026-04-22 06:16 | 32.92815 | -8.56748 | 35993 ft | 468 kts | 27° |
| 2026-04-22 06:16 | 32.98327 | -8.52621 | 35997 ft | 468 kts | 27° |
| 2026-04-22 06:17 | 33.03836 | -8.48489 | 36001 ft | 468 kts | 27° |
| 2026-04-22 06:17 | 33.09354 | -8.44344 | 35993 ft | 468 kts | 27° |
| 2026-04-22 06:18 | 33.14859 | -8.40201 | 36002 ft | 468 kts | 27° |
| 2026-04-22 06:18 | 33.20362 | -8.36057 | 35996 ft | 468 kts | 27° |
| 2026-04-22 06:19 | 33.25872 | -8.31916 | 35998 ft | 467 kts | 27° |
| 2026-04-22 06:19 | 33.31374 | -8.27780 | 35993 ft | 467 kts | 27° |
| 2026-04-22 06:20 | 33.36869 | -8.23639 | 35999 ft | 467 kts | 27° |
| 2026-04-22 06:20 | 33.42357 | -8.19494 | 36003 ft | 466 kts | 27° |
| 2026-04-22 06:21 | 33.47847 | -8.15340 | 35996 ft | 466 kts | 27° |
| 2026-04-22 06:21 | 33.53299 | -8.11209 | 35991 ft | 466 kts | 27° |
| 2026-04-22 06:22 | 33.58771 | -8.07056 | 35995 ft | 466 kts | 27° |
| 2026-04-22 06:22 | 33.64253 | -8.02890 | 35995 ft | 466 kts | 27° |
| 2026-04-22 06:23 | 33.69726 | -7.98724 | 36007 ft | 466 kts | 27° |
| 2026-04-22 06:23 | 33.75207 | -7.94546 | 35997 ft | 466 kts | 27° |
| 2026-04-22 06:24 | 33.83427 | -7.88267 | 35989 ft | 467 kts | 27° |
| 2026-04-22 06:25 | 33.88916 | -7.84067 | 35983 ft | 467 kts | 27° |
| 2026-04-22 06:25 | 33.94405 | -7.79860 | 35985 ft | 468 kts | 27° |
| 2026-04-22 06:26 | 33.99895 | -7.75646 | 36000 ft | 469 kts | 27° |
| 2026-04-22 06:26 | 34.05393 | -7.71418 | 35996 ft | 469 kts | 27° |
| 2026-04-22 06:27 | 34.10866 | -7.67204 | 35999 ft | 470 kts | 27° |
| 2026-04-22 06:27 | 34.16379 | -7.62952 | 35986 ft | 470 kts | 28° |
| 2026-04-22 06:28 | 34.21888 | -7.58696 | 36008 ft | 470 kts | 28° |
| 2026-04-22 06:28 | 34.27389 | -7.54440 | 35996 ft | 469 kts | 28° |
| 2026-04-22 06:29 | 34.32887 | -7.50179 | 35993 ft | 469 kts | 28° |
| 2026-04-22 06:29 | 34.38380 | -7.45915 | 35999 ft | 469 kts | 28° |
| 2026-04-22 06:30 | 34.43863 | -7.41653 | 35994 ft | 468 kts | 28° |
| 2026-04-22 06:30 | 34.49347 | -7.37383 | 35994 ft | 468 kts | 28° |
| 2026-04-22 06:31 | 34.54830 | -7.33107 | 35993 ft | 468 kts | 28° |
| 2026-04-22 06:31 | 34.60312 | -7.28826 | 35998 ft | 468 kts | 28° |
| 2026-04-22 06:32 | 34.65792 | -7.24539 | 35995 ft | 469 kts | 28° |
| 2026-04-22 06:32 | 34.71241 | -7.20269 | 36009 ft | 468 kts | 28° |
| 2026-04-22 06:33 | 34.76716 | -7.15972 | 35987 ft | 468 kts | 28° |
| 2026-04-22 06:33 | 34.82194 | -7.11666 | 35999 ft | 469 kts | 28° |
| 2026-04-22 06:34 | 34.87671 | -7.07353 | 35999 ft | 469 kts | 28° |
| 2026-04-22 06:34 | 34.93143 | -7.03037 | 35997 ft | 469 kts | 28° |
| 2026-04-22 06:35 | 34.98619 | -6.98712 | 35996 ft | 469 kts | 28° |
| 2026-04-22 06:35 | 35.04090 | -6.94382 | 35995 ft | 469 kts | 28° |
| 2026-04-22 06:36 | 35.09564 | -6.90044 | 35996 ft | 469 kts | 28° |
| 2026-04-22 06:36 | 35.15037 | -6.85699 | 35995 ft | 470 kts | 28° |
| 2026-04-22 06:37 | 35.20516 | -6.81342 | 36002 ft | 469 kts | 28° |
| 2026-04-22 06:37 | 35.25985 | -6.76985 | 35991 ft | 469 kts | 28° |
| 2026-04-22 06:38 | 35.31455 | -6.72618 | 36001 ft | 469 kts | 28° |
| 2026-04-22 06:38 | 35.35979 | -6.69014 | 35650 ft | 461 kts | 27° |
| 2026-04-22 06:38 | 35.38659 | -6.66930 | 35402 ft | 451 kts | 27° |
| 2026-04-22 06:39 | 35.41289 | -6.64912 | 35140 ft | 442 kts | 26° |
| 2026-04-22 06:39 | 35.43882 | -6.62929 | 34889 ft | 438 kts | 26° |
| 2026-04-22 06:39 | 35.46486 | -6.60942 | 34680 ft | 444 kts | 26° |
| 2026-04-22 06:39 | 35.49122 | -6.58924 | 34459 ft | 450 kts | 27° |
| 2026-04-22 06:40 | 35.51793 | -6.56872 | 34231 ft | 452 kts | 27° |
| 2026-04-22 06:40 | 35.54448 | -6.54822 | 33978 ft | 451 kts | 27° |
| 2026-04-22 06:40 | 35.57095 | -6.52772 | 33703 ft | 449 kts | 27° |
| 2026-04-22 06:40 | 35.59737 | -6.50724 | 33445 ft | 447 kts | 27° |
| 2026-04-22 06:41 | 35.62361 | -6.48689 | 33186 ft | 446 kts | 27° |
| 2026-04-22 06:41 | 35.64978 | -6.46658 | 32918 ft | 444 kts | 27° |
| 2026-04-22 06:41 | 35.67579 | -6.44639 | 32661 ft | 441 kts | 27° |
| 2026-04-22 06:41 | 35.70163 | -6.42632 | 32340 ft | 437 kts | 27° |
| 2026-04-22 06:42 | 35.72723 | -6.40641 | 31925 ft | 433 kts | 27° |
| 2026-04-22 06:42 | 35.75252 | -6.38673 | 31501 ft | 429 kts | 27° |
| 2026-04-22 06:42 | 35.77767 | -6.36715 | 31072 ft | 426 kts | 27° |
| 2026-04-22 06:42 | 35.80264 | -6.34771 | 30651 ft | 423 kts | 27° |
| 2026-04-22 06:43 | 35.82741 | -6.32841 | 30233 ft | 420 kts | 27° |
| 2026-04-22 06:43 | 35.85194 | -6.30879 | 29771 ft | 419 kts | 29° |
| 2026-04-22 06:43 | 35.87588 | -6.28856 | 29302 ft | 416 kts | 30° |
| 2026-04-22 06:43 | 35.89964 | -6.26842 | 28807 ft | 412 kts | 26° |
| 2026-04-22 06:44 | 35.92510 | -6.25278 | 28205 ft | 406 kts | 17° |
| 2026-04-22 06:44 | 35.95110 | -6.23992 | 27781 ft | 402 kts | 16° |
| 2026-04-22 06:44 | 35.97708 | -6.22743 | 27320 ft | 399 kts | 16° |
| 2026-04-22 06:44 | 36.00290 | -6.21501 | 26886 ft | 397 kts | 17° |
| 2026-04-22 06:45 | 36.02854 | -6.20255 | 26452 ft | 394 kts | 17° |
| 2026-04-22 06:45 | 36.05396 | -6.19005 | 26033 ft | 392 kts | 17° |
| 2026-04-22 06:45 | 36.07920 | -6.17752 | 25599 ft | 390 kts | 17° |
| 2026-04-22 06:45 | 36.10430 | -6.16499 | 25193 ft | 388 kts | 17° |
| 2026-04-22 06:46 | 36.12933 | -6.15245 | 24751 ft | 387 kts | 18° |
| 2026-04-22 06:46 | 36.15425 | -6.13993 | 24330 ft | 386 kts | 18° |
| 2026-04-22 06:46 | 36.17916 | -6.12740 | 23893 ft | 386 kts | 18° |
| 2026-04-22 06:46 | 36.20401 | -6.11489 | 23444 ft | 385 kts | 18° |
| 2026-04-22 06:47 | 36.22882 | -6.10239 | 22966 ft | 384 kts | 18° |
| 2026-04-22 06:47 | 36.25350 | -6.08994 | 22524 ft | 382 kts | 18° |
| 2026-04-22 06:47 | 36.27773 | -6.07771 | 22100 ft | 380 kts | 18° |
| 2026-04-22 06:47 | 36.30216 | -6.06537 | 21674 ft | 378 kts | 18° |
| 2026-04-22 06:48 | 36.32645 | -6.05310 | 21255 ft | 376 kts | 19° |
| 2026-04-22 06:48 | 36.35065 | -6.04086 | 20850 ft | 375 kts | 19° |
| 2026-04-22 06:48 | 36.37475 | -6.02867 | 20437 ft | 374 kts | 19° |
| 2026-04-22 06:48 | 36.39878 | -6.01650 | 20020 ft | 373 kts | 19° |
| 2026-04-22 06:49 | 36.42273 | -6.00437 | 19589 ft | 373 kts | 19° |
| 2026-04-22 06:49 | 36.44677 | -5.99219 | 19174 ft | 372 kts | 19° |
| 2026-04-22 06:49 | 36.47071 | -5.98005 | 18742 ft | 373 kts | 19° |
| 2026-04-22 06:49 | 36.49475 | -5.96785 | 18319 ft | 373 kts | 19° |
| 2026-04-22 06:50 | 36.51878 | -5.95564 | 17843 ft | 373 kts | 19° |
| 2026-04-22 06:50 | 36.54272 | -5.94347 | 17419 ft | 371 kts | 20° |
| 2026-04-22 06:50 | 36.56660 | -5.93132 | 17005 ft | 370 kts | 20° |
| 2026-04-22 06:50 | 36.59038 | -5.91922 | 16595 ft | 369 kts | 20° |
| 2026-04-22 06:51 | 36.61408 | -5.90714 | 16185 ft | 368 kts | 20° |
| 2026-04-22 06:51 | 36.63772 | -5.89509 | 15749 ft | 368 kts | 20° |
| 2026-04-22 06:51 | 36.66135 | -5.88304 | 15354 ft | 366 kts | 20° |
| 2026-04-22 06:51 | 36.68497 | -5.87099 | 14925 ft | 367 kts | 20° |
| 2026-04-22 06:52 | 36.70857 | -5.85894 | 14502 ft | 366 kts | 20° |
| 2026-04-22 06:52 | 36.73214 | -5.84689 | 14082 ft | 366 kts | 20° |
| 2026-04-22 06:52 | 36.75571 | -5.83484 | 13636 ft | 367 kts | 21° |
| 2026-04-22 06:52 | 36.77931 | -5.82276 | 13192 ft | 366 kts | 21° |
| 2026-04-22 06:53 | 36.80277 | -5.81074 | 12774 ft | 364 kts | 21° |
| 2026-04-22 06:53 | 36.82618 | -5.79874 | 12338 ft | 364 kts | 21° |
| 2026-04-22 06:53 | 36.84965 | -5.78671 | 11902 ft | 364 kts | 21° |
| 2026-04-22 06:53 | 36.87303 | -5.77471 | 11477 ft | 363 kts | 21° |
| 2026-04-22 06:54 | 36.89642 | -5.76270 | 11052 ft | 363 kts | 21° |
| 2026-04-22 06:54 | 36.91979 | -5.75069 | 10618 ft | 363 kts | 21° |
| 2026-04-22 06:54 | 36.94317 | -5.73866 | 10221 ft | 362 kts | 21° |
| 2026-04-22 06:54 | 36.96619 | -5.72681 | 10043 ft | 354 kts | 21° |
| 2026-04-22 06:55 | 36.98872 | -5.71519 | 9898 ft | 344 kts | 21° |
| 2026-04-22 06:55 | 37.01041 | -5.70400 | 9875 ft | 331 kts | 21° |
| 2026-04-22 06:55 | 37.03152 | -5.69311 | 9663 ft | 325 kts | 20° |
| 2026-04-22 06:55 | 37.05235 | -5.68237 | 9340 ft | 324 kts | 21° |
| 2026-04-22 06:56 | 37.07313 | -5.67165 | 9012 ft | 321 kts | 21° |
| 2026-04-22 06:56 | 37.09354 | -5.66110 | 8589 ft | 316 kts | 21° |
| 2026-04-22 06:56 | 37.11392 | -5.65057 | 8057 ft | 317 kts | 21° |
| 2026-04-22 06:56 | 37.13422 | -5.64007 | 7611 ft | 314 kts | 21° |
| 2026-04-22 06:57 | 37.15429 | -5.62970 | 7173 ft | 311 kts | 21° |
| 2026-04-22 06:57 | 37.17434 | -5.61976 | 6741 ft | 307 kts | 15° |
| 2026-04-22 06:57 | 37.19503 | -5.61630 | 6271 ft | 303 kts | 359° |
| 2026-04-22 06:57 | 37.21622 | -5.61561 | 5564 ft | 309 kts | 0° |
| 2026-04-22 06:58 | 37.23786 | -5.61450 | 4881 ft | 313 kts | 1° |
| 2026-04-22 06:58 | 37.25939 | -5.61314 | 4393 ft | 307 kts | 2° |
| 2026-04-22 06:58 | 37.28057 | -5.61170 | 3859 ft | 302 kts | 2° |
| 2026-04-22 06:58 | 37.30130 | -5.61026 | 3558 ft | 294 kts | 2° |
| 2026-04-22 06:59 | 37.32152 | -5.60886 | 3300 ft | 287 kts | 1° |
| 2026-04-22 06:59 | 37.34110 | -5.60752 | 3025 ft | 277 kts | 2° |
| 2026-04-22 06:59 | 37.36017 | -5.60650 | 2658 ft | 272 kts | 355° |
| 2026-04-22 06:59 | 37.37768 | -5.61381 | 2208 ft | 267 kts | 321° |
| 2026-04-22 07:00 | 37.39030 | -5.63006 | 2121 ft | 256 kts | 310° |
| 2026-04-22 07:00 | 37.40195 | -5.64650 | 2018 ft | 247 kts | 311° |
| 2026-04-22 07:00 | 37.41296 | -5.66234 | 2002 ft | 233 kts | 304° |
| 2026-04-22 07:00 | 37.41808 | -5.68041 | 2030 ft | 212 kts | 272° |
| 2026-04-22 07:01 | 37.41861 | -5.69814 | 2011 ft | 195 kts | 271° |
| 2026-04-22 07:01 | 37.41877 | -5.71451 | 2010 ft | 183 kts | 269° |
| 2026-04-22 07:01 | 37.41871 | -5.72998 | 1987 ft | 169 kts | 269° |
| 2026-04-22 07:01 | 37.41863 | -5.74447 | 2042 ft | 164 kts | 269° |
| 2026-04-22 07:02 | 37.41855 | -5.75878 | 1934 ft | 165 kts | 269° |
| 2026-04-22 07:02 | 37.41848 | -5.77323 | 1745 ft | 166 kts | 269° |
| 2026-04-22 07:02 | 37.41841 | -5.78770 | 1520 ft | 164 kts | 269° |
| 2026-04-22 07:02 | 37.41834 | -5.80194 | 1294 ft | 161 kts | 269° |
| 2026-04-22 07:03 | 37.41828 | -5.81588 | 1132 ft | 159 kts | 269° |
| 2026-04-22 07:03 | 37.41821 | -5.82994 | 855 ft | 158 kts | 269° |
| 2026-04-22 07:03 | 37.41815 | -5.84336 | 642 ft | 148 kts | 269° |
| 2026-04-22 07:03 | 37.41810 | -5.85616 | 467 ft | 149 kts | 269° |
| 2026-04-22 07:04 | 37.41777 | -5.86915 | 207 ft | 146 kts | 269° |
| 2026-04-22 07:04 | 37.41802 | -5.88175 | 250 ft | 152 kts | 269° |
| 2026-04-22 07:04 | 37.41800 | -5.89544 | 1058 ft | 165 kts | 267° |
| 2026-04-22 07:04 | 37.41761 | -5.91026 | 2077 ft | 167 kts | 267° |
| 2026-04-22 07:05 | 37.41707 | -5.92520 | 2659 ft | 167 kts | 263° |
| 2026-04-22 07:05 | 37.41539 | -5.93941 | 2783 ft | 164 kts | 262° |
| 2026-04-22 07:05 | 37.41388 | -5.95383 | 2750 ft | 169 kts | 252° |
| 2026-04-22 07:05 | 37.41106 | -5.96796 | 2774 ft | 171 kts | 256° |
| 2026-04-22 07:06 | 37.40861 | -5.98313 | 2721 ft | 177 kts | 265° |
| 2026-04-22 07:06 | 37.41120 | -5.99794 | 2806 ft | 174 kts | 294° |
| 2026-04-22 07:06 | 37.41682 | -6.01225 | 2701 ft | 199 kts | 301° |
| 2026-04-22 07:06 | 37.42820 | -6.02390 | 2317 ft | 233 kts | 343° |
| 2026-04-22 07:07 | 37.44434 | -6.02457 | 2653 ft | 229 kts | 3° |
| 2026-04-22 07:07 | 37.46005 | -6.02311 | 3094 ft | 219 kts | 2° |
| 2026-04-22 07:07 | 37.47412 | -6.02178 | 3450 ft | 191 kts | 2° |
| 2026-04-22 07:07 | 37.48841 | -6.01928 | 3767 ft | 228 kts | 20° |
| 2026-04-22 07:08 | 37.50231 | -6.00714 | 4069 ft | 256 kts | 41° |
| 2026-04-22 07:08 | 37.51598 | -5.99260 | 4016 ft | 255 kts | 39° |
| 2026-04-22 07:08 | 37.52941 | -5.97865 | 3995 ft | 246 kts | 39° |
| 2026-04-22 07:08 | 37.54249 | -5.96532 | 3997 ft | 238 kts | 38° |
| 2026-04-22 07:09 | 37.55551 | -5.95264 | 4033 ft | 237 kts | 37° |
| 2026-04-22 07:09 | 37.56810 | -5.93878 | 3997 ft | 245 kts | 47° |
| 2026-04-22 07:09 | 37.57859 | -5.92159 | 3623 ft | 255 kts | 54° |
| 2026-04-22 07:09 | 37.59000 | -5.90263 | 2634 ft | 285 kts | 52° |
| 2026-04-22 07:10 | 37.60064 | -5.88177 | 2388 ft | 279 kts | 69° |
| 2026-04-22 07:10 | 37.60453 | -5.85819 | 2191 ft | 272 kts | 83° |
| 2026-04-22 07:10 | 37.60698 | -5.83480 | 2036 ft | 264 kts | 82° |
| 2026-04-22 07:10 | 37.60935 | -5.81253 | 2071 ft | 249 kts | 83° |
| 2026-04-22 07:11 | 37.61137 | -5.79156 | 2076 ft | 234 kts | 90° |
| 2026-04-22 07:11 | 37.60689 | -5.77312 | 2083 ft | 217 kts | 132° |
| 2026-04-22 07:11 | 37.59431 | -5.76313 | 2151 ft | 221 kts | 159° |
| 2026-04-22 07:11 | 37.57983 | -5.75593 | 2129 ft | 229 kts | 160° |
| 2026-04-22 07:12 | 37.56428 | -5.75268 | 1995 ft | 231 kts | 187° |
| 2026-04-22 07:12 | 37.54841 | -5.75596 | 1835 ft | 222 kts | 190° |
| 2026-04-22 07:12 | 37.53367 | -5.75904 | 1640 ft | 207 kts | 189° |
| 2026-04-22 07:12 | 37.52003 | -5.76187 | 1452 ft | 190 kts | 190° |
| 2026-04-22 07:13 | 37.50745 | -5.76453 | 1260 ft | 176 kts | 189° |
| 2026-04-22 07:13 | 37.49566 | -5.76752 | 1130 ft | 172 kts | 194° |
| 2026-04-22 07:13 | 37.48455 | -5.77085 | 1085 ft | 159 kts | 194° |
| 2026-04-22 07:13 | 37.47477 | -5.77543 | 1026 ft | 139 kts | 205° |
| 2026-04-22 07:14 | 37.46576 | -5.78124 | 1032 ft | 140 kts | 210° |
| 2026-04-22 07:14 | 37.45784 | -5.78808 | 998 ft | 139 kts | 217° |
| 2026-04-22 07:14 | 37.45065 | -5.79602 | 994 ft | 139 kts | 222° |
| 2026-04-22 07:14 | 37.44378 | -5.80472 | 968 ft | 141 kts | 226° |
| 2026-04-22 07:15 | 37.43714 | -5.81385 | 941 ft | 144 kts | 226° |
| 2026-04-22 07:15 | 37.43071 | -5.82315 | 912 ft | 138 kts | 230° |
| 2026-04-22 07:15 | 37.42492 | -5.83288 | 813 ft | 139 kts | 236° |
| 2026-04-22 07:15 | 37.42001 | -5.84343 | 670 ft | 143 kts | 246° |
| 2026-04-22 07:16 | 37.41799 | -5.85585 | 472 ft | 147 kts | 268° |
| 2026-04-22 07:16 | 37.41786 | -5.86829 | 265 ft | 142 kts | 269° |
| 2026-04-22 07:16 | 37.41797 | -5.88055 | 110 ft | 134 kts | 268° |
| 2026-04-22 07:16 | 37.41794 | -5.89086 | 100 ft | 97 kts | 270° |
| 2026-04-22 07:17 | 37.41792 | -5.89752 | 97 ft | 55 kts | 270° |
| 2026-04-22 07:17 | 37.41791 | -5.90068 | 97 ft | 27 kts | 269° |
| 2026-04-22 07:17 | 37.41811 | -5.90286 | 98 ft | 25 kts | 319° |
| 2026-04-22 07:17 | 37.41977 | -5.90305 | 94 ft | 23 kts | 360° |
| 2026-04-22 07:18 | 37.42052 | -5.90170 | 93 ft | 23 kts | 90° |
| 2026-04-22 07:18 | 37.42080 | -5.89985 | 93 ft | 22 kts | 46° |
| 2026-04-22 07:18 | 37.42190 | -5.89854 | 93 ft | 21 kts | 44° |
| 2026-04-22 07:18 | 37.42214 | -5.89825 | 93 ft | 0 kts | 39° |
| 2026-04-22 07:19 | 37.42226 | -5.89826 | 94 ft | 3 kts | 344° |
| 2026-04-22 07:19 | 37.42242 | -5.89839 | 92 ft | 3 kts | 322° |
| 2026-04-22 07:19 | 37.42262 | -5.89863 | 92 ft | 4 kts | 314° |
| 2026-04-22 07:19 | 37.42273 | -5.89877 | 95 ft | 0 kts | 315° |
| 2026-04-22 07:20 | 37.42276 | -5.89880 | 95 ft | 1 kts | 315° |
| 2026-04-22 07:20 | 37.42277 | -5.89882 | 94 ft | 0 kts | 315° |